sensor_id;sensor_type;location;lat;lon;timestamp;P1;durP1;ratioP1;P2;durP2;ratioP2
79052;SDS011;68451;49.510;6.026;2024-01-30T00:00:17;19.53;;;14.23;;
79052;SDS011;68451;49.510;6.026;2024-01-30T00:02:44;22.13;;;14.27;;
79052;SDS011;68451;49.510;6.026;2024-01-30T00:05:12;21.13;;;14.40;;
79052;SDS011;68451;49.510;6.026;2024-01-30T00:07:39;20.03;;;14.03;;
79052;SDS011;68451;49.510;6.026;2024-01-30T00:10:06;23.20;;;14.47;;
79052;SDS011;68451;49.510;6.026;2024-01-30T00:12:33;20.53;;;14.50;;
79052;SDS011;68451;49.510;6.026;2024-01-30T00:15:00;22.83;;;13.97;;
79052;SDS011;68451;49.510;6.026;2024-01-30T00:17:28;18.13;;;14.23;;
79052;SDS011;68451;49.510;6.026;2024-01-30T00:19:54;25.17;;;15.43;;
79052;SDS011;68451;49.510;6.026;2024-01-30T00:22:22;23.10;;;15.07;;
79052;SDS011;68451;49.510;6.026;2024-01-30T00:24:49;25.23;;;16.10;;
79052;SDS011;68451;49.510;6.026;2024-01-30T00:27:16;23.20;;;15.20;;
79052;SDS011;68451;49.510;6.026;2024-01-30T00:29:42;25.57;;;14.70;;
79052;SDS011;68451;49.510;6.026;2024-01-30T00:32:10;23.27;;;16.03;;
79052;SDS011;68451;49.510;6.026;2024-01-30T00:34:36;22.30;;;16.23;;
79052;SDS011;68451;49.510;6.026;2024-01-30T00:37:03;19.73;;;14.13;;
79052;SDS011;68451;49.510;6.026;2024-01-30T00:39:30;25.17;;;16.33;;
79052;SDS011;68451;49.510;6.026;2024-01-30T00:41:57;24.53;;;15.63;;
79052;SDS011;68451;49.510;6.026;2024-01-30T00:44:24;20.27;;;14.20;;
79052;SDS011;68451;49.510;6.026;2024-01-30T00:46:51;24.80;;;15.33;;
79052;SDS011;68451;49.510;6.026;2024-01-30T00:49:18;20.63;;;13.93;;
79052;SDS011;68451;49.510;6.026;2024-01-30T00:51:46;24.60;;;15.20;;
79052;SDS011;68451;49.510;6.026;2024-01-30T00:54:13;22.27;;;15.47;;
79052;SDS011;68451;49.510;6.026;2024-01-30T00:56:39;21.87;;;15.10;;
79052;SDS011;68451;49.510;6.026;2024-01-30T00:59:06;23.00;;;15.13;;
79052;SDS011;68451;49.510;6.026;2024-01-30T01:01:33;25.07;;;15.90;;
79052;SDS011;68451;49.510;6.026;2024-01-30T01:04:00;32.13;;;15.40;;
79052;SDS011;68451;49.510;6.026;2024-01-30T01:06:27;24.63;;;14.90;;
79052;SDS011;68451;49.510;6.026;2024-01-30T01:08:54;23.87;;;15.30;;
79052;SDS011;68451;49.510;6.026;2024-01-30T01:11:21;28.77;;;17.00;;
79052;SDS011;68451;49.510;6.026;2024-01-30T01:13:48;26.63;;;17.93;;
79052;SDS011;68451;49.510;6.026;2024-01-30T01:16:15;25.47;;;15.97;;
79052;SDS011;68451;49.510;6.026;2024-01-30T01:18:42;29.13;;;16.03;;
79052;SDS011;68451;49.510;6.026;2024-01-30T01:21:09;26.50;;;17.20;;
79052;SDS011;68451;49.510;6.026;2024-01-30T01:23:36;26.33;;;16.20;;
79052;SDS011;68451;49.510;6.026;2024-01-30T01:26:03;20.17;;;15.40;;
79052;SDS011;68451;49.510;6.026;2024-01-30T01:28:30;33.03;;;19.03;;
79052;SDS011;68451;49.510;6.026;2024-01-30T01:30:57;29.33;;;18.60;;
79052;SDS011;68451;49.510;6.026;2024-01-30T01:33:32;22.47;;;14.23;;
79052;SDS011;68451;49.510;6.026;2024-01-30T01:36:00;21.47;;;15.87;;
79052;SDS011;68451;49.510;6.026;2024-01-30T01:38:29;22.77;;;15.90;;
79052;SDS011;68451;49.510;6.026;2024-01-30T01:40:56;25.47;;;15.90;;
79052;SDS011;68451;49.510;6.026;2024-01-30T01:43:23;24.20;;;15.87;;
79052;SDS011;68451;49.510;6.026;2024-01-30T01:45:50;22.80;;;14.87;;
79052;SDS011;68451;49.510;6.026;2024-01-30T01:48:17;26.63;;;14.87;;
79052;SDS011;68451;49.510;6.026;2024-01-30T01:50:44;25.67;;;16.17;;
79052;SDS011;68451;49.510;6.026;2024-01-30T01:53:11;28.73;;;15.97;;
79052;SDS011;68451;49.510;6.026;2024-01-30T01:55:39;26.13;;;16.10;;
79052;SDS011;68451;49.510;6.026;2024-01-30T01:58:06;20.07;;;14.87;;
79052;SDS011;68451;49.510;6.026;2024-01-30T02:00:35;21.77;;;13.90;;
79052;SDS011;68451;49.510;6.026;2024-01-30T02:03:06;29.33;;;15.73;;
79052;SDS011;68451;49.510;6.026;2024-01-30T02:05:34;23.17;;;14.73;;
79052;SDS011;68451;49.510;6.026;2024-01-30T02:08:01;24.47;;;14.53;;
79052;SDS011;68451;49.510;6.026;2024-01-30T02:10:30;21.53;;;14.43;;
79052;SDS011;68451;49.510;6.026;2024-01-30T02:12:57;26.13;;;15.77;;
79052;SDS011;68451;49.510;6.026;2024-01-30T02:15:23;24.10;;;14.60;;
79052;SDS011;68451;49.510;6.026;2024-01-30T02:17:50;25.40;;;16.50;;
79052;SDS011;68451;49.510;6.026;2024-01-30T02:20:18;27.30;;;15.77;;
79052;SDS011;68451;49.510;6.026;2024-01-30T02:22:45;28.93;;;16.40;;
79052;SDS011;68451;49.510;6.026;2024-01-30T02:25:13;23.17;;;15.53;;
79052;SDS011;68451;49.510;6.026;2024-01-30T02:27:40;21.93;;;15.33;;
79052;SDS011;68451;49.510;6.026;2024-01-30T02:30:07;20.27;;;14.73;;
79052;SDS011;68451;49.510;6.026;2024-01-30T02:32:34;21.83;;;14.70;;
79052;SDS011;68451;49.510;6.026;2024-01-30T02:35:01;18.77;;;14.20;;
79052;SDS011;68451;49.510;6.026;2024-01-30T02:37:28;23.03;;;14.97;;
79052;SDS011;68451;49.510;6.026;2024-01-30T02:39:55;24.57;;;15.50;;
79052;SDS011;68451;49.510;6.026;2024-01-30T02:42:22;19.53;;;13.97;;
79052;SDS011;68451;49.510;6.026;2024-01-30T02:44:48;22.37;;;13.87;;
79052;SDS011;68451;49.510;6.026;2024-01-30T02:47:15;25.30;;;13.63;;
79052;SDS011;68451;49.510;6.026;2024-01-30T02:49:42;19.33;;;12.13;;
79052;SDS011;68451;49.510;6.026;2024-01-30T02:52:09;18.40;;;12.63;;
79052;SDS011;68451;49.510;6.026;2024-01-30T02:54:36;20.60;;;12.93;;
79052;SDS011;68451;49.510;6.026;2024-01-30T02:57:03;20.73;;;12.70;;
79052;SDS011;68451;49.510;6.026;2024-01-30T02:59:30;19.17;;;13.63;;
79052;SDS011;68451;49.510;6.026;2024-01-30T03:01:59;16.97;;;12.13;;
79052;SDS011;68451;49.510;6.026;2024-01-30T03:04:27;19.10;;;13.37;;
79052;SDS011;68451;49.510;6.026;2024-01-30T03:06:54;22.00;;;14.03;;
79052;SDS011;68451;49.510;6.026;2024-01-30T03:09:21;19.20;;;13.17;;
79052;SDS011;68451;49.510;6.026;2024-01-30T03:11:47;15.83;;;12.33;;
79052;SDS011;68451;49.510;6.026;2024-01-30T03:14:14;21.00;;;12.67;;
79052;SDS011;68451;49.510;6.026;2024-01-30T03:16:41;32.90;;;24.03;;
79052;SDS011;68451;49.510;6.026;2024-01-30T03:19:08;49.47;;;35.27;;
79052;SDS011;68451;49.510;6.026;2024-01-30T03:21:36;51.13;;;30.83;;
79052;SDS011;68451;49.510;6.026;2024-01-30T03:24:03;31.80;;;20.37;;
79052;SDS011;68451;49.510;6.026;2024-01-30T03:26:29;25.90;;;17.53;;
79052;SDS011;68451;49.510;6.026;2024-01-30T03:28:56;51.17;;;31.37;;
79052;SDS011;68451;49.510;6.026;2024-01-30T03:31:23;28.00;;;18.70;;
79052;SDS011;68451;49.510;6.026;2024-01-30T03:33:50;27.20;;;17.30;;
79052;SDS011;68451;49.510;6.026;2024-01-30T03:36:17;31.07;;;20.73;;
79052;SDS011;68451;49.510;6.026;2024-01-30T03:38:44;24.80;;;15.17;;
79052;SDS011;68451;49.510;6.026;2024-01-30T03:41:11;23.87;;;12.70;;
79052;SDS011;68451;49.510;6.026;2024-01-30T03:43:38;20.37;;;13.40;;
79052;SDS011;68451;49.510;6.026;2024-01-30T03:46:06;18.33;;;13.67;;
79052;SDS011;68451;49.510;6.026;2024-01-30T03:48:33;18.27;;;12.43;;
79052;SDS011;68451;49.510;6.026;2024-01-30T03:51:00;20.00;;;12.90;;
79052;SDS011;68451;49.510;6.026;2024-01-30T03:53:27;21.03;;;11.40;;
79052;SDS011;68451;49.510;6.026;2024-01-30T03:55:53;17.53;;;12.23;;
79052;SDS011;68451;49.510;6.026;2024-01-30T03:58:20;20.10;;;12.73;;
79052;SDS011;68451;49.510;6.026;2024-01-30T04:00:47;20.00;;;13.53;;
79052;SDS011;68451;49.510;6.026;2024-01-30T04:03:14;22.43;;;13.10;;
79052;SDS011;68451;49.510;6.026;2024-01-30T04:05:44;19.43;;;12.53;;
79052;SDS011;68451;49.510;6.026;2024-01-30T04:08:11;16.43;;;11.60;;
79052;SDS011;68451;49.510;6.026;2024-01-30T04:10:38;20.47;;;12.93;;
79052;SDS011;68451;49.510;6.026;2024-01-30T04:13:05;22.23;;;13.60;;
79052;SDS011;68451;49.510;6.026;2024-01-30T04:15:36;21.57;;;12.30;;
79052;SDS011;68451;49.510;6.026;2024-01-30T04:18:03;19.00;;;14.07;;
79052;SDS011;68451;49.510;6.026;2024-01-30T04:20:30;18.37;;;12.27;;
79052;SDS011;68451;49.510;6.026;2024-01-30T04:22:57;18.00;;;12.80;;
79052;SDS011;68451;49.510;6.026;2024-01-30T04:25:24;20.37;;;12.97;;
79052;SDS011;68451;49.510;6.026;2024-01-30T04:27:51;15.93;;;11.80;;
79052;SDS011;68451;49.510;6.026;2024-01-30T04:30:18;17.50;;;10.77;;
79052;SDS011;68451;49.510;6.026;2024-01-30T04:32:44;13.33;;;10.40;;
79052;SDS011;68451;49.510;6.026;2024-01-30T04:35:11;14.60;;;10.50;;
79052;SDS011;68451;49.510;6.026;2024-01-30T04:37:39;17.87;;;10.80;;
79052;SDS011;68451;49.510;6.026;2024-01-30T04:40:06;16.23;;;10.90;;
79052;SDS011;68451;49.510;6.026;2024-01-30T04:42:33;16.90;;;10.43;;
79052;SDS011;68451;49.510;6.026;2024-01-30T04:45:00;16.40;;;10.97;;
79052;SDS011;68451;49.510;6.026;2024-01-30T04:47:27;18.47;;;11.80;;
79052;SDS011;68451;49.510;6.026;2024-01-30T04:49:54;20.27;;;12.43;;
79052;SDS011;68451;49.510;6.026;2024-01-30T04:52:21;18.60;;;11.93;;
79052;SDS011;68451;49.510;6.026;2024-01-30T04:54:47;17.97;;;11.20;;
79052;SDS011;68451;49.510;6.026;2024-01-30T04:57:14;20.37;;;11.67;;
79052;SDS011;68451;49.510;6.026;2024-01-30T04:59:41;17.73;;;12.33;;
79052;SDS011;68451;49.510;6.026;2024-01-30T05:04:43;19.60;;;12.13;;
79052;SDS011;68451;49.510;6.026;2024-01-30T05:07:11;18.27;;;11.07;;
79052;SDS011;68451;49.510;6.026;2024-01-30T05:09:38;16.70;;;11.47;;
79052;SDS011;68451;49.510;6.026;2024-01-30T05:12:05;22.70;;;12.93;;
79052;SDS011;68451;49.510;6.026;2024-01-30T05:14:32;17.67;;;11.63;;
79052;SDS011;68451;49.510;6.026;2024-01-30T05:16:58;19.53;;;11.23;;
79052;SDS011;68451;49.510;6.026;2024-01-30T05:19:25;18.03;;;12.17;;
79052;SDS011;68451;49.510;6.026;2024-01-30T05:21:52;17.33;;;12.27;;
79052;SDS011;68451;49.510;6.026;2024-01-30T05:24:19;16.87;;;11.13;;
79052;SDS011;68451;49.510;6.026;2024-01-30T05:26:46;20.80;;;12.40;;
79052;SDS011;68451;49.510;6.026;2024-01-30T05:29:14;18.07;;;11.03;;
79052;SDS011;68451;49.510;6.026;2024-01-30T05:31:41;17.53;;;11.07;;
79052;SDS011;68451;49.510;6.026;2024-01-30T05:34:08;15.83;;;10.63;;
79052;SDS011;68451;49.510;6.026;2024-01-30T05:36:35;19.00;;;12.87;;
79052;SDS011;68451;49.510;6.026;2024-01-30T05:39:02;18.13;;;11.43;;
79052;SDS011;68451;49.510;6.026;2024-01-30T05:41:32;19.10;;;11.63;;
79052;SDS011;68451;49.510;6.026;2024-01-30T05:43:59;18.90;;;11.50;;
79052;SDS011;68451;49.510;6.026;2024-01-30T05:46:26;14.73;;;11.50;;
79052;SDS011;68451;49.510;6.026;2024-01-30T05:48:53;17.13;;;11.83;;
79052;SDS011;68451;49.510;6.026;2024-01-30T05:51:20;21.23;;;10.60;;
79052;SDS011;68451;49.510;6.026;2024-01-30T05:53:47;18.40;;;11.13;;
79052;SDS011;68451;49.510;6.026;2024-01-30T05:56:14;20.13;;;12.97;;
79052;SDS011;68451;49.510;6.026;2024-01-30T05:58:41;16.03;;;11.57;;
79052;SDS011;68451;49.510;6.026;2024-01-30T06:01:09;17.33;;;10.40;;
79052;SDS011;68451;49.510;6.026;2024-01-30T06:03:36;22.00;;;11.70;;
79052;SDS011;68451;49.510;6.026;2024-01-30T06:06:03;15.47;;;11.00;;
79052;SDS011;68451;49.510;6.026;2024-01-30T06:08:30;19.80;;;12.80;;
79052;SDS011;68451;49.510;6.026;2024-01-30T06:10:57;21.57;;;11.47;;
79052;SDS011;68451;49.510;6.026;2024-01-30T06:13:24;14.67;;;11.00;;
79052;SDS011;68451;49.510;6.026;2024-01-30T06:15:51;15.97;;;10.57;;
79052;SDS011;68451;49.510;6.026;2024-01-30T06:18:18;17.00;;;10.20;;
79052;SDS011;68451;49.510;6.026;2024-01-30T06:20:45;15.60;;;11.00;;
79052;SDS011;68451;49.510;6.026;2024-01-30T06:23:12;18.53;;;11.27;;
79052;SDS011;68451;49.510;6.026;2024-01-30T06:25:39;14.73;;;9.50;;
79052;SDS011;68451;49.510;6.026;2024-01-30T06:28:06;16.07;;;10.33;;
79052;SDS011;68451;49.510;6.026;2024-01-30T06:30:33;12.40;;;8.90;;
79052;SDS011;68451;49.510;6.026;2024-01-30T06:32:59;15.40;;;9.40;;
79052;SDS011;68451;49.510;6.026;2024-01-30T06:35:26;12.97;;;8.47;;
79052;SDS011;68451;49.510;6.026;2024-01-30T06:37:55;14.83;;;8.57;;
79052;SDS011;68451;49.510;6.026;2024-01-30T06:40:22;13.63;;;7.97;;
79052;SDS011;68451;49.510;6.026;2024-01-30T06:42:49;12.70;;;9.57;;
79052;SDS011;68451;49.510;6.026;2024-01-30T06:45:16;13.17;;;7.87;;
79052;SDS011;68451;49.510;6.026;2024-01-30T06:47:43;15.20;;;8.00;;
79052;SDS011;68451;49.510;6.026;2024-01-30T06:50:10;13.07;;;8.07;;
79052;SDS011;68451;49.510;6.026;2024-01-30T06:52:37;11.47;;;7.37;;
79052;SDS011;68451;49.510;6.026;2024-01-30T06:55:04;12.80;;;8.93;;
79052;SDS011;68451;49.510;6.026;2024-01-30T06:57:31;23.30;;;9.33;;
79052;SDS011;68451;49.510;6.026;2024-01-30T06:59:58;10.90;;;8.27;;
79052;SDS011;68451;49.510;6.026;2024-01-30T07:02:25;15.07;;;7.77;;
79052;SDS011;68451;49.510;6.026;2024-01-30T07:04:51;11.30;;;8.60;;
79052;SDS011;68451;49.510;6.026;2024-01-30T07:07:18;11.77;;;8.93;;
79052;SDS011;68451;49.510;6.026;2024-01-30T07:09:45;13.30;;;8.43;;
79052;SDS011;68451;49.510;6.026;2024-01-30T07:12:14;12.57;;;7.90;;
79052;SDS011;68451;49.510;6.026;2024-01-30T07:14:40;10.97;;;8.03;;
79052;SDS011;68451;49.510;6.026;2024-01-30T07:17:07;10.87;;;8.30;;
79052;SDS011;68451;49.510;6.026;2024-01-30T07:19:34;14.47;;;8.03;;
79052;SDS011;68451;49.510;6.026;2024-01-30T07:22:01;14.33;;;9.27;;
79052;SDS011;68451;49.510;6.026;2024-01-30T07:24:28;11.23;;;7.70;;
79052;SDS011;68451;49.510;6.026;2024-01-30T07:26:55;14.17;;;8.97;;
79052;SDS011;68451;49.510;6.026;2024-01-30T07:29:22;14.50;;;8.10;;
79052;SDS011;68451;49.510;6.026;2024-01-30T07:31:48;14.20;;;8.97;;
79052;SDS011;68451;49.510;6.026;2024-01-30T07:34:15;11.90;;;7.83;;
79052;SDS011;68451;49.510;6.026;2024-01-30T07:36:42;8.33;;;6.70;;
79052;SDS011;68451;49.510;6.026;2024-01-30T07:39:09;12.63;;;7.27;;
79052;SDS011;68451;49.510;6.026;2024-01-30T07:41:36;12.00;;;7.43;;
79052;SDS011;68451;49.510;6.026;2024-01-30T07:44:03;12.77;;;7.60;;
79052;SDS011;68451;49.510;6.026;2024-01-30T07:46:30;11.30;;;7.53;;
79052;SDS011;68451;49.510;6.026;2024-01-30T07:48:58;15.20;;;8.60;;
79052;SDS011;68451;49.510;6.026;2024-01-30T07:51:25;11.03;;;7.97;;
79052;SDS011;68451;49.510;6.026;2024-01-30T07:53:51;10.63;;;7.60;;
79052;SDS011;68451;49.510;6.026;2024-01-30T07:56:18;16.57;;;9.10;;
79052;SDS011;68451;49.510;6.026;2024-01-30T07:58:45;14.13;;;9.47;;
79052;SDS011;68451;49.510;6.026;2024-01-30T08:01:12;13.13;;;9.97;;
79052;SDS011;68451;49.510;6.026;2024-01-30T08:03:41;12.33;;;8.73;;
79052;SDS011;68451;49.510;6.026;2024-01-30T08:06:08;16.80;;;10.23;;
79052;SDS011;68451;49.510;6.026;2024-01-30T08:08:36;20.73;;;8.37;;
79052;SDS011;68451;49.510;6.026;2024-01-30T08:11:04;11.43;;;8.23;;
79052;SDS011;68451;49.510;6.026;2024-01-30T08:13:31;13.77;;;9.37;;
79052;SDS011;68451;49.510;6.026;2024-01-30T08:15:58;13.20;;;8.07;;
79052;SDS011;68451;49.510;6.026;2024-01-30T08:18:25;10.83;;;9.00;;
79052;SDS011;68451;49.510;6.026;2024-01-30T08:20:52;15.37;;;7.80;;
79052;SDS011;68451;49.510;6.026;2024-01-30T08:23:19;11.73;;;7.83;;
79052;SDS011;68451;49.510;6.026;2024-01-30T08:25:46;10.33;;;8.20;;
79052;SDS011;68451;49.510;6.026;2024-01-30T08:28:13;9.73;;;7.10;;
79052;SDS011;68451;49.510;6.026;2024-01-30T08:30:43;11.00;;;8.33;;
79052;SDS011;68451;49.510;6.026;2024-01-30T08:33:10;9.53;;;7.80;;
79052;SDS011;68451;49.510;6.026;2024-01-30T08:35:37;10.40;;;8.93;;
79052;SDS011;68451;49.510;6.026;2024-01-30T08:38:04;13.80;;;9.17;;
79052;SDS011;68451;49.510;6.026;2024-01-30T08:40:31;14.23;;;8.80;;
79052;SDS011;68451;49.510;6.026;2024-01-30T08:42:58;13.00;;;7.80;;
79052;SDS011;68451;49.510;6.026;2024-01-30T08:45:25;11.37;;;7.93;;
79052;SDS011;68451;49.510;6.026;2024-01-30T08:47:52;17.10;;;10.77;;
79052;SDS011;68451;49.510;6.026;2024-01-30T08:50:19;15.83;;;11.73;;
79052;SDS011;68451;49.510;6.026;2024-01-30T08:52:46;15.60;;;9.23;;
79052;SDS011;68451;49.510;6.026;2024-01-30T08:55:15;13.23;;;8.03;;
79052;SDS011;68451;49.510;6.026;2024-01-30T08:57:42;15.67;;;8.07;;
79052;SDS011;68451;49.510;6.026;2024-01-30T09:00:09;10.40;;;8.10;;
79052;SDS011;68451;49.510;6.026;2024-01-30T09:02:37;11.33;;;7.67;;
79052;SDS011;68451;49.510;6.026;2024-01-30T09:05:04;11.60;;;8.13;;
79052;SDS011;68451;49.510;6.026;2024-01-30T09:07:31;11.43;;;8.07;;
79052;SDS011;68451;49.510;6.026;2024-01-30T09:09:58;10.50;;;7.57;;
79052;SDS011;68451;49.510;6.026;2024-01-30T09:12:25;11.17;;;7.23;;
79052;SDS011;68451;49.510;6.026;2024-01-30T09:14:53;17.43;;;10.80;;
79052;SDS011;68451;49.510;6.026;2024-01-30T09:17:20;11.70;;;8.20;;
79052;SDS011;68451;49.510;6.026;2024-01-30T09:19:46;11.60;;;7.87;;
79052;SDS011;68451;49.510;6.026;2024-01-30T09:22:13;12.23;;;9.73;;
79052;SDS011;68451;49.510;6.026;2024-01-30T09:24:40;12.90;;;8.67;;
79052;SDS011;68451;49.510;6.026;2024-01-30T09:27:07;11.30;;;8.17;;
79052;SDS011;68451;49.510;6.026;2024-01-30T09:29:34;14.40;;;9.20;;
79052;SDS011;68451;49.510;6.026;2024-01-30T09:32:03;14.90;;;10.30;;
79052;SDS011;68451;49.510;6.026;2024-01-30T09:34:31;11.67;;;7.90;;
79052;SDS011;68451;49.510;6.026;2024-01-30T09:36:58;10.50;;;7.80;;
79052;SDS011;68451;49.510;6.026;2024-01-30T09:39:26;15.87;;;9.37;;
79052;SDS011;68451;49.510;6.026;2024-01-30T09:44:59;12.13;;;8.73;;
79052;SDS011;68451;49.510;6.026;2024-01-30T09:47:26;12.73;;;8.50;;
79052;SDS011;68451;49.510;6.026;2024-01-30T09:49:53;13.17;;;8.50;;
79052;SDS011;68451;49.510;6.026;2024-01-30T09:52:22;12.90;;;8.67;;
79052;SDS011;68451;49.510;6.026;2024-01-30T09:54:49;11.40;;;8.97;;
79052;SDS011;68451;49.510;6.026;2024-01-30T09:57:17;9.87;;;8.53;;
79052;SDS011;68451;49.510;6.026;2024-01-30T09:59:44;15.13;;;9.50;;
79052;SDS011;68451;49.510;6.026;2024-01-30T10:02:11;13.27;;;8.10;;
79052;SDS011;68451;49.510;6.026;2024-01-30T10:04:39;15.00;;;8.03;;
79052;SDS011;68451;49.510;6.026;2024-01-30T10:07:06;10.07;;;7.87;;
79052;SDS011;68451;49.510;6.026;2024-01-30T10:09:34;13.57;;;8.50;;
79052;SDS011;68451;49.510;6.026;2024-01-30T10:12:01;10.40;;;7.30;;
79052;SDS011;68451;49.510;6.026;2024-01-30T10:14:30;13.87;;;8.47;;
79052;SDS011;68451;49.510;6.026;2024-01-30T10:17:01;10.30;;;7.87;;
79052;SDS011;68451;49.510;6.026;2024-01-30T10:19:37;10.73;;;7.67;;
79052;SDS011;68451;49.510;6.026;2024-01-30T10:22:05;11.83;;;8.60;;
79052;SDS011;68451;49.510;6.026;2024-01-30T10:24:35;14.27;;;7.57;;
79052;SDS011;68451;49.510;6.026;2024-01-30T10:27:02;8.07;;;6.53;;
79052;SDS011;68451;49.510;6.026;2024-01-30T10:29:29;11.00;;;7.90;;
79052;SDS011;68451;49.510;6.026;2024-01-30T10:32:00;8.47;;;6.67;;
79052;SDS011;68451;49.510;6.026;2024-01-30T10:34:28;10.88;;;7.25;;
79052;SDS011;68451;49.510;6.026;2024-01-30T10:37:07;13.00;;;6.73;;
79052;SDS011;68451;49.510;6.026;2024-01-30T10:39:45;11.83;;;5.57;;
79052;SDS011;68451;49.510;6.026;2024-01-30T10:42:13;9.70;;;4.90;;
79052;SDS011;68451;49.510;6.026;2024-01-30T10:47:34;7.90;;;4.90;;
79052;SDS011;68451;49.510;6.026;2024-01-30T10:50:05;9.23;;;6.05;;
79052;SDS011;68451;49.510;6.026;2024-01-30T10:52:34;9.10;;;5.60;;
79052;SDS011;68451;49.510;6.026;2024-01-30T10:55:01;7.23;;;4.93;;
79052;SDS011;68451;49.510;6.026;2024-01-30T10:57:32;7.37;;;4.97;;
79052;SDS011;68451;49.510;6.026;2024-01-30T11:00:02;6.00;;;4.53;;
79052;SDS011;68451;49.510;6.026;2024-01-30T11:02:43;9.30;;;5.43;;
79052;SDS011;68451;49.510;6.026;2024-01-30T11:05:11;8.53;;;5.50;;
79052;SDS011;68451;49.510;6.026;2024-01-30T11:07:39;6.13;;;4.53;;
79052;SDS011;68451;49.510;6.026;2024-01-30T11:10:09;5.83;;;4.50;;
79052;SDS011;68451;49.510;6.026;2024-01-30T11:15:14;5.77;;;4.80;;
79052;SDS011;68451;49.510;6.026;2024-01-30T11:20:15;6.67;;;5.20;;
79052;SDS011;68451;49.510;6.026;2024-01-30T11:22:47;6.65;;;4.70;;
79052;SDS011;68451;49.510;6.026;2024-01-30T11:25:16;8.83;;;5.13;;
79052;SDS011;68451;49.510;6.026;2024-01-30T11:27:44;7.47;;;5.00;;
79052;SDS011;68451;49.510;6.026;2024-01-30T11:30:22;7.40;;;5.47;;
79052;SDS011;68451;49.510;6.026;2024-01-30T11:35:40;7.53;;;5.40;;
79052;SDS011;68451;49.510;6.026;2024-01-30T11:38:09;9.47;;;5.00;;
79052;SDS011;68451;49.510;6.026;2024-01-30T11:40:40;6.40;;;4.55;;
79052;SDS011;68451;49.510;6.026;2024-01-30T11:43:08;6.17;;;4.67;;
79052;SDS011;68451;49.510;6.026;2024-01-30T11:45:36;6.67;;;5.50;;
79052;SDS011;68451;49.510;6.026;2024-01-30T11:48:03;7.40;;;4.60;;
79052;SDS011;68451;49.510;6.026;2024-01-30T11:50:34;7.87;;;5.70;;
79052;SDS011;68451;49.510;6.026;2024-01-30T11:53:02;8.10;;;5.53;;
79052;SDS011;68451;49.510;6.026;2024-01-30T11:55:29;8.57;;;6.00;;
79052;SDS011;68451;49.510;6.026;2024-01-30T11:58:00;10.17;;;5.63;;
79052;SDS011;68451;49.510;6.026;2024-01-30T12:00:28;6.43;;;5.03;;
79052;SDS011;68451;49.510;6.026;2024-01-30T12:02:57;6.70;;;5.27;;
79052;SDS011;68451;49.510;6.026;2024-01-30T12:05:27;7.40;;;5.13;;
79052;SDS011;68451;49.510;6.026;2024-01-30T12:07:55;8.00;;;6.38;;
79052;SDS011;68451;49.510;6.026;2024-01-30T12:10:26;7.83;;;5.57;;
79052;SDS011;68451;49.510;6.026;2024-01-30T12:12:54;7.03;;;5.60;;
79052;SDS011;68451;49.510;6.026;2024-01-30T12:15:22;8.27;;;5.55;;
79052;SDS011;68451;49.510;6.026;2024-01-30T12:17:49;8.52;;;6.00;;
79052;SDS011;68451;49.510;6.026;2024-01-30T12:20:19;7.13;;;5.28;;
79052;SDS011;68451;49.510;6.026;2024-01-30T12:22:49;8.25;;;5.80;;
79052;SDS011;68451;49.510;6.026;2024-01-30T12:25:17;11.77;;;5.38;;
79052;SDS011;68451;49.510;6.026;2024-01-30T12:27:46;7.85;;;5.43;;
79052;SDS011;68451;49.510;6.026;2024-01-30T12:30:18;9.32;;;5.85;;
79052;SDS011;68451;49.510;6.026;2024-01-30T12:32:49;8.38;;;5.30;;
79052;SDS011;68451;49.510;6.026;2024-01-30T12:35:18;8.15;;;5.50;;
79052;SDS011;68451;49.510;6.026;2024-01-30T12:37:47;6.60;;;5.63;;
79052;SDS011;68451;49.510;6.026;2024-01-30T12:40:15;8.70;;;5.95;;
79052;SDS011;68451;49.510;6.026;2024-01-30T12:42:43;10.63;;;6.33;;
79052;SDS011;68451;49.510;6.026;2024-01-30T12:45:21;8.13;;;5.18;;
79052;SDS011;68451;49.510;6.026;2024-01-30T12:47:49;8.60;;;5.20;;
79052;SDS011;68451;49.510;6.026;2024-01-30T12:50:16;8.63;;;5.73;;
79052;SDS011;68451;49.510;6.026;2024-01-30T12:52:44;12.00;;;6.40;;
79052;SDS011;68451;49.510;6.026;2024-01-30T12:55:15;18.87;;;6.07;;
79052;SDS011;68451;49.510;6.026;2024-01-30T12:57:42;10.20;;;7.15;;
79052;SDS011;68451;49.510;6.026;2024-01-30T13:00:09;9.00;;;6.50;;
79052;SDS011;68451;49.510;6.026;2024-01-30T13:02:37;7.53;;;5.80;;
79052;SDS011;68451;49.510;6.026;2024-01-30T13:05:04;7.82;;;6.70;;
79052;SDS011;68451;49.510;6.026;2024-01-30T13:07:31;10.57;;;6.13;;
79052;SDS011;68451;49.510;6.026;2024-01-30T13:09:58;9.35;;;6.13;;
79052;SDS011;68451;49.510;6.026;2024-01-30T13:12:30;7.68;;;6.10;;
79052;SDS011;68451;49.510;6.026;2024-01-30T13:14:59;9.25;;;6.25;;
79052;SDS011;68451;49.510;6.026;2024-01-30T13:17:31;6.75;;;5.43;;
79052;SDS011;68451;49.510;6.026;2024-01-30T13:19:58;10.68;;;6.70;;
79052;SDS011;68451;49.510;6.026;2024-01-30T13:22:36;10.35;;;6.25;;
79052;SDS011;68451;49.510;6.026;2024-01-30T13:25:05;10.20;;;6.13;;
79052;SDS011;68451;49.510;6.026;2024-01-30T13:27:34;8.82;;;6.82;;
79052;SDS011;68451;49.510;6.026;2024-01-30T13:30:02;9.23;;;6.47;;
79052;SDS011;68451;49.510;6.026;2024-01-30T13:32:30;13.02;;;6.78;;
79052;SDS011;68451;49.510;6.026;2024-01-30T13:34:57;9.35;;;6.43;;
79052;SDS011;68451;49.510;6.026;2024-01-30T13:37:24;9.30;;;7.27;;
79052;SDS011;68451;49.510;6.026;2024-01-30T13:39:51;10.45;;;7.32;;
79052;SDS011;68451;49.510;6.026;2024-01-30T13:42:18;7.55;;;5.95;;
79052;SDS011;68451;49.510;6.026;2024-01-30T13:44:45;7.90;;;7.10;;
79052;SDS011;68451;49.510;6.026;2024-01-30T13:47:12;8.65;;;5.93;;
79052;SDS011;68451;49.510;6.026;2024-01-30T13:49:39;9.82;;;6.10;;
79052;SDS011;68451;49.510;6.026;2024-01-30T13:52:06;11.43;;;7.55;;
79052;SDS011;68451;49.510;6.026;2024-01-30T13:54:33;9.73;;;6.05;;
79052;SDS011;68451;49.510;6.026;2024-01-30T13:57:00;7.55;;;5.80;;
79052;SDS011;68451;49.510;6.026;2024-01-30T13:59:27;10.57;;;6.13;;
79052;SDS011;68451;49.510;6.026;2024-01-30T14:01:54;13.18;;;6.70;;
79052;SDS011;68451;49.510;6.026;2024-01-30T14:04:21;11.60;;;7.13;;
79052;SDS011;68451;49.510;6.026;2024-01-30T14:06:48;10.52;;;6.68;;
79052;SDS011;68451;49.510;6.026;2024-01-30T14:09:26;10.05;;;7.25;;
79052;SDS011;68451;49.510;6.026;2024-01-30T14:11:53;10.00;;;6.25;;
79052;SDS011;68451;49.510;6.026;2024-01-30T14:14:20;13.45;;;6.18;;
79052;SDS011;68451;49.510;6.026;2024-01-30T14:16:46;9.80;;;6.45;;
79052;SDS011;68451;49.510;6.026;2024-01-30T14:19:13;9.80;;;7.07;;
79052;SDS011;68451;49.510;6.026;2024-01-30T14:21:40;10.25;;;6.50;;
79052;SDS011;68451;49.510;6.026;2024-01-30T14:24:09;9.93;;;7.03;;
79052;SDS011;68451;49.510;6.026;2024-01-30T14:26:36;10.75;;;7.05;;
79052;SDS011;68451;49.510;6.026;2024-01-30T14:29:03;13.07;;;6.45;;
79052;SDS011;68451;49.510;6.026;2024-01-30T14:31:30;11.52;;;7.63;;
79052;SDS011;68451;49.510;6.026;2024-01-30T14:33:56;11.00;;;7.10;;
79052;SDS011;68451;49.510;6.026;2024-01-30T14:36:24;9.20;;;7.00;;
79052;SDS011;68451;49.510;6.026;2024-01-30T14:38:54;9.50;;;7.10;;
79052;SDS011;68451;49.510;6.026;2024-01-30T14:41:21;13.15;;;6.60;;
79052;SDS011;68451;49.510;6.026;2024-01-30T14:43:49;11.35;;;7.50;;
79052;SDS011;68451;49.510;6.026;2024-01-30T14:46:16;14.07;;;6.13;;
79052;SDS011;68451;49.510;6.026;2024-01-30T14:48:43;10.03;;;6.43;;